Elenik — SW3416 — position and weather

sailwx.info

Track history (hours):
 
Tides and Currents Weather Stations Pressure Air Temp Water Temp Dewpoint Dewpoint Depression Visibility Wind Speed Wind Dir Waves Ship Positions

Elenik

Last reported at 2017-Sep-19 23:52 UTC. Time now 2017-Sep-25 19:11 UTC.
Position N 37°11' E 025°48'.

Length 26 m.

Type: Fishing. MMSI: 237525000.

Date/timePositionNaut miles runAvg speedWind from/ knotsBaromVisibWave heightAir tempDewpointWater temp
2017-Sep-19 23:52N 37°11' E 025°48'3 8.4
2017-Sep-19 23:30N 37°11' E 025°44'17 7.8
2017-Sep-19 21:19N 37°08' E 025°24'2 6.6
2017-Sep-19 21:00N 37°06' E 025°22'0 0.1
2017-Sep-19 20:30N 37°06' E 025°22'0 0.0
2017-Sep-19 20:00N 37°06' E 025°22'0 0.0
2017-Sep-19 19:30N 37°06' E 025°22'0 0.0
2017-Sep-19 19:00N 37°06' E 025°22'0 0.0
2017-Sep-19 18:30N 37°06' E 025°22'0 0.0
2017-Sep-19 18:00N 37°06' E 025°22'0 0.0
2017-Sep-19 17:30N 37°06' E 025°22'0 0.0
2017-Sep-19 17:00N 37°06' E 025°22'0 0.0
2017-Sep-19 16:30N 37°06' E 025°22'0 0.0
2017-Sep-19 16:00N 37°06' E 025°22'0 0.0
2017-Sep-19 15:30N 37°06' E 025°22'0 0.0
2017-Sep-19 15:00N 37°06' E 025°22'0 0.0
2017-Sep-19 14:30N 37°06' E 025°22'0 0.0
2017-Sep-19 14:00N 37°06' E 025°22'0 0.0
2017-Sep-19 13:30N 37°06' E 025°22'0 0.0
2017-Sep-19 13:00N 37°06' E 025°22'0 0.0
2017-Sep-19 12:30N 37°06' E 025°22'  
2017-Sep-16 16:20N 37°16' E 025°21'1 2.9
2017-Sep-16 15:55N 37°16' E 025°19'10 2.2
2017-Sep-16 11:32N 37°07' E 025°22'1 5.8
2017-Sep-16 11:26N 37°06' E 025°22'0 0.7
2017-Sep-16 11:00N 37°06' E 025°22'0 0.0
2017-Sep-16 10:30N 37°06' E 025°22'0 0.0
2017-Sep-16 10:00N 37°06' E 025°22'0 0.0
2017-Sep-16 09:30N 37°06' E 025°22'0 0.0
2017-Sep-16 09:00N 37°06' E 025°22'0 0.0
2017-Sep-16 08:30N 37°06' E 025°22'0 0.0
2017-Sep-16 08:00N 37°06' E 025°22'0 0.0
2017-Sep-16 07:30N 37°06' E 025°22'0 0.0
2017-Sep-16 07:00N 37°06' E 025°22'0 0.0
2017-Sep-16 06:30N 37°06' E 025°22'0 0.0
2017-Sep-16 06:00N 37°06' E 025°22'0 0.0
2017-Sep-16 05:30N 37°06' E 025°22'0 0.0
2017-Sep-16 05:00N 37°06' E 025°22'0 0.0
2017-Sep-16 04:30N 37°06' E 025°22'0 0.0
2017-Sep-16 04:00N 37°06' E 025°22'0 0.0
2017-Sep-16 03:30N 37°06' E 025°22'0 0.0
2017-Sep-16 03:00N 37°06' E 025°22'0 0.0
2017-Sep-16 02:30N 37°06' E 025°22'0 0.0
2017-Sep-16 02:00N 37°06' E 025°22'0 0.0
2017-Sep-16 01:30N 37°06' E 025°22'0 0.0
2017-Sep-16 01:00N 37°06' E 025°22'0 0.0
2017-Sep-16 00:30N 37°06' E 025°22'0 0.0
2017-Sep-16 00:00N 37°06' E 025°22'0 0.0
2017-Sep-15 23:31N 37°06' E 025°22'0 0.0
2017-Sep-15 23:00N 37°06' E 025°22'0 0.0
2017-Sep-15 22:31N 37°06' E 025°22'0 0.0
2017-Sep-15 22:00N 37°06' E 025°22'0 0.0
2017-Sep-15 21:30N 37°06' E 025°22'0 0.0
2017-Sep-15 21:00N 37°06' E 025°22'0 0.0
2017-Sep-15 20:30N 37°06' E 025°22'0 0.0
2017-Sep-15 20:00N 37°06' E 025°22'0 0.0
2017-Sep-15 19:30N 37°06' E 025°22'0 0.0
2017-Sep-15 19:00N 37°06' E 025°22'0 0.0
2017-Sep-15 18:30N 37°06' E 025°22'0 0.0
2017-Sep-15 18:00N 37°06' E 025°22'0 0.0
2017-Sep-15 17:30N 37°06' E 025°22'0 0.0
2017-Sep-15 17:00N 37°06' E 025°22'0 0.0
2017-Sep-15 16:30N 37°06' E 025°22'0 0.0
2017-Sep-15 16:00N 37°06' E 025°22'0 0.0
2017-Sep-15 15:30N 37°06' E 025°22'0 0.0
2017-Sep-15 15:00N 37°06' E 025°22'0 0.0
2017-Sep-15 14:30N 37°06' E 025°22'0 0.0
2017-Sep-15 14:00N 37°06' E 025°22'0 0.0
2017-Sep-15 13:30N 37°06' E 025°22'0 0.0
2017-Sep-15 13:01N 37°06' E 025°22'0 0.0
2017-Sep-15 12:30N 37°06' E 025°22'0 0.0
2017-Sep-15 12:00N 37°06' E 025°22'0 0.0
2017-Sep-15 11:30N 37°06' E 025°22'0 0.0
2017-Sep-15 11:00N 37°06' E 025°22'0 0.0
2017-Sep-15 10:30N 37°06' E 025°22'0 0.0
2017-Sep-15 10:00N 37°06' E 025°22'0 0.0
2017-Sep-15 09:30N 37°06' E 025°22'0 0.0
2017-Sep-15 09:00N 37°06' E 025°22'0 0.0
2017-Sep-15 08:30N 37°06' E 025°22'0 0.0
2017-Sep-15 08:00N 37°06' E 025°22'0 0.0
2017-Sep-15 07:30N 37°06' E 025°22'0 0.0
2017-Sep-15 06:59N 37°06' E 025°22'  
Track history (hours):
 
Tides and Currents Weather Stations Pressure Air Temp Water Temp Dewpoint Dewpoint Depression Visibility Wind Speed Wind Dir Waves Ship Positions

Elenik

Last reported at 2017-Sep-19 23:52 UTC. Time now 2017-Sep-25 19:11 UTC.
Position N 37°11' E 025°48'.

Length 26 m.

Type: Fishing. MMSI: 237525000.

Date/timePositionNaut miles runAvg speedWind from/ knotsBaromVisibWave heightAir tempDewpointWater temp
2017-Sep-19 23:52N 37°11' E 025°48'3 8.4
2017-Sep-19 23:30N 37°11' E 025°44'17 7.8
2017-Sep-19 21:19N 37°08' E 025°24'2 6.6
2017-Sep-19 21:00N 37°06' E 025°22'0 0.1
2017-Sep-19 20:30N 37°06' E 025°22'0 0.0
2017-Sep-19 20:00N 37°06' E 025°22'0 0.0
2017-Sep-19 19:30N 37°06' E 025°22'0 0.0
2017-Sep-19 19:00N 37°06' E 025°22'0 0.0
2017-Sep-19 18:30N 37°06' E 025°22'0 0.0
2017-Sep-19 18:00N 37°06' E 025°22'0 0.0
2017-Sep-19 17:30N 37°06' E 025°22'0 0.0
2017-Sep-19 17:00N 37°06' E 025°22'0 0.0
2017-Sep-19 16:30N 37°06' E 025°22'0 0.0
2017-Sep-19 16:00N 37°06' E 025°22'0 0.0
2017-Sep-19 15:30N 37°06' E 025°22'0 0.0
2017-Sep-19 15:00N 37°06' E 025°22'0 0.0
2017-Sep-19 14:30N 37°06' E 025°22'0 0.0
2017-Sep-19 14:00N 37°06' E 025°22'0 0.0
2017-Sep-19 13:30N 37°06' E 025°22'0 0.0
2017-Sep-19 13:00N 37°06' E 025°22'0 0.0
2017-Sep-19 12:30N 37°06' E 025°22'  
2017-Sep-16 16:20N 37°16' E 025°21'1 2.9
2017-Sep-16 15:55N 37°16' E 025°19'10 2.2
2017-Sep-16 11:32N 37°07' E 025°22'1 5.8
2017-Sep-16 11:26N 37°06' E 025°22'0 0.7
2017-Sep-16 11:00N 37°06' E 025°22'0 0.0
2017-Sep-16 10:30N 37°06' E 025°22'0 0.0
2017-Sep-16 10:00N 37°06' E 025°22'0 0.0
2017-Sep-16 09:30N 37°06' E 025°22'0 0.0
2017-Sep-16 09:00N 37°06' E 025°22'0 0.0
2017-Sep-16 08:30N 37°06' E 025°22'0 0.0
2017-Sep-16 08:00N 37°06' E 025°22'0 0.0
2017-Sep-16 07:30N 37°06' E 025°22'0 0.0
2017-Sep-16 07:00N 37°06' E 025°22'0 0.0
2017-Sep-16 06:30N 37°06' E 025°22'0 0.0
2017-Sep-16 06:00N 37°06' E 025°22'0 0.0
2017-Sep-16 05:30N 37°06' E 025°22'0 0.0
2017-Sep-16 05:00N 37°06' E 025°22'0 0.0
2017-Sep-16 04:30N 37°06' E 025°22'0 0.0
2017-Sep-16 04:00N 37°06' E 025°22'0 0.0
2017-Sep-16 03:30N 37°06' E 025°22'0 0.0
2017-Sep-16 03:00N 37°06' E 025°22'0 0.0
2017-Sep-16 02:30N 37°06' E 025°22'0 0.0
2017-Sep-16 02:00N 37°06' E 025°22'0 0.0
2017-Sep-16 01:30N 37°06' E 025°22'0 0.0
2017-Sep-16 01:00N 37°06' E 025°22'0 0.0
2017-Sep-16 00:30N 37°06' E 025°22'0 0.0
2017-Sep-16 00:00N 37°06' E 025°22'0 0.0
2017-Sep-15 23:31N 37°06' E 025°22'0 0.0
2017-Sep-15 23:00N 37°06' E 025°22'0 0.0
2017-Sep-15 22:31N 37°06' E 025°22'0 0.0
2017-Sep-15 22:00N 37°06' E 025°22'0 0.0
2017-Sep-15 21:30N 37°06' E 025°22'0 0.0
2017-Sep-15 21:00N 37°06' E 025°22'0 0.0
2017-Sep-15 20:30N 37°06' E 025°22'0 0.0
2017-Sep-15 20:00N 37°06' E 025°22'0 0.0
2017-Sep-15 19:30N 37°06' E 025°22'0 0.0
2017-Sep-15 19:00N 37°06' E 025°22'0 0.0
2017-Sep-15 18:30N 37°06' E 025°22'0 0.0
2017-Sep-15 18:00N 37°06' E 025°22'0 0.0
2017-Sep-15 17:30N 37°06' E 025°22'0 0.0
2017-Sep-15 17:00N 37°06' E 025°22'0 0.0
2017-Sep-15 16:30N 37°06' E 025°22'0 0.0
2017-Sep-15 16:00N 37°06' E 025°22'0 0.0
2017-Sep-15 15:30N 37°06' E 025°22'0 0.0
2017-Sep-15 15:00N 37°06' E 025°22'0 0.0
2017-Sep-15 14:30N 37°06' E 025°22'0 0.0
2017-Sep-15 14:00N 37°06' E 025°22'0 0.0
2017-Sep-15 13:30N 37°06' E 025°22'0 0.0
2017-Sep-15 13:01N 37°06' E 025°22'0 0.0
2017-Sep-15 12:30N 37°06' E 025°22'0 0.0
2017-Sep-15 12:00N 37°06' E 025°22'0 0.0
2017-Sep-15 11:30N 37°06' E 025°22'0 0.0
2017-Sep-15 11:00N 37°06' E 025°22'0 0.0
2017-Sep-15 10:30N 37°06' E 025°22'0 0.0
2017-Sep-15 10:00N 37°06' E 025°22'0 0.0
2017-Sep-15 09:30N 37°06' E 025°22'0 0.0
2017-Sep-15 09:00N 37°06' E 025°22'0 0.0
2017-Sep-15 08:30N 37°06' E 025°22'0 0.0
2017-Sep-15 08:00N 37°06' E 025°22'0 0.0
2017-Sep-15 07:30N 37°06' E 025°22'0 0.0
2017-Sep-15 06:59N 37°06' E 025°22'  

Dump ship's entire track history